createdAt,value
2018-07-27T00:00:32.028Z,81.60
2018-07-27T00:03:00.474Z,81.70
2018-07-27T00:05:28.885Z,81.80
2018-07-27T00:07:57.280Z,82.20
2018-07-27T00:10:25.726Z,82.50
2018-07-27T00:12:54.145Z,82.70
2018-07-27T00:15:22.558Z,82.80
2018-07-27T00:17:50.976Z,83.00
2018-07-27T00:20:19.415Z,83.40
2018-07-27T00:22:47.826Z,83.90
2018-07-27T00:25:16.288Z,83.50
2018-07-27T00:27:44.714Z,84.40
2018-07-27T00:30:13.151Z,84.40
2018-07-27T00:32:41.607Z,85.70
2018-07-27T00:35:10.034Z,84.20
2018-07-27T00:37:38.465Z,84.10
2018-07-27T00:40:06.926Z,84.30
2018-07-27T00:42:35.346Z,85.10
2018-07-27T00:45:04.018Z,85.00
2018-07-27T00:47:32.495Z,85.20
2018-07-27T00:50:00.986Z,85.60
2018-07-27T00:52:29.385Z,85.90
2018-07-27T00:54:57.808Z,85.90
2018-07-27T00:57:26.260Z,85.60
2018-07-27T00:59:54.663Z,86.20
2018-07-27T01:02:23.111Z,86.10
2018-07-27T01:04:51.517Z,86.10
2018-07-27T01:07:19.950Z,86.60
2018-07-27T01:09:48.418Z,86.60
2018-07-27T01:12:16.886Z,86.70
2018-07-27T01:14:45.317Z,86.20
2018-07-27T01:17:13.748Z,86.70
2018-07-27T01:19:42.169Z,87.20
2018-07-27T01:22:10.604Z,86.70
2018-07-27T01:24:39.052Z,86.80
2018-07-27T01:27:07.511Z,87.00
2018-07-27T01:29:35.983Z,87.00
2018-07-27T01:32:04.395Z,87.20
2018-07-27T01:34:32.825Z,87.50
2018-07-27T01:37:01.249Z,87.10
2018-07-27T01:39:29.697Z,87.50
2018-07-27T01:41:58.194Z,87.50
2018-07-27T01:44:26.633Z,87.80
2018-07-27T01:46:55.057Z,88.60
2018-07-27T01:49:23.486Z,88.10
2018-07-27T01:51:52.036Z,88.20
2018-07-27T01:54:20.555Z,88.10
2018-07-27T01:56:49.028Z,88.60
2018-07-27T01:59:17.482Z,88.30
2018-07-27T02:01:45.879Z,88.40
2018-07-27T02:04:14.318Z,88.70
2018-07-27T02:06:42.745Z,88.80
2018-07-27T02:09:11.172Z,89.40
2018-07-27T02:11:39.617Z,89.20
2018-07-27T02:14:08.057Z,89.20
2018-07-27T02:16:36.464Z,89.50
2018-07-27T02:19:04.895Z,89.40
2018-07-27T02:21:33.330Z,89.60
2018-07-27T02:24:01.725Z,90.00
2018-07-27T02:26:30.153Z,90.30
2018-07-27T02:28:58.588Z,90.20
2018-07-27T02:31:26.997Z,90.30
2018-07-27T02:33:55.498Z,90.30
2018-07-27T02:36:23.958Z,90.50
2018-07-27T02:38:52.364Z,90.70
2018-07-27T02:41:20.801Z,91.10
2018-07-27T02:43:49.253Z,90.70
2018-07-27T02:46:17.676Z,90.70
2018-07-27T02:48:46.089Z,90.80
2018-07-27T02:51:14.540Z,90.70
2018-07-27T02:53:42.976Z,91.10
2018-07-27T02:56:11.417Z,90.90
2018-07-27T02:58:39.871Z,91.30
2018-07-27T03:01:08.317Z,91.20
2018-07-27T03:03:37.557Z,91.20
2018-07-27T03:06:06.087Z,91.30
2018-07-27T03:08:34.504Z,91.20
2018-07-27T03:11:02.914Z,91.20
2018-07-27T03:13:31.382Z,91.30
2018-07-27T03:15:59.827Z,91.90
2018-07-27T03:18:28.260Z,91.40
2018-07-27T03:20:56.715Z,91.50
2018-07-27T03:23:25.150Z,91.20
2018-07-27T03:25:53.571Z,91.40
2018-07-27T03:28:22.033Z,91.40
2018-07-27T03:30:50.458Z,91.00
2018-07-27T03:33:18.890Z,91.70
2018-07-27T03:35:47.341Z,91.30
2018-07-27T03:38:15.782Z,91.50
2018-07-27T03:40:44.238Z,91.50
2018-07-27T03:43:12.672Z,91.50
2018-07-27T03:45:41.076Z,91.70
2018-07-27T03:48:10.203Z,91.40
2018-07-27T03:50:40.455Z,91.70
2018-07-27T03:53:09.432Z,91.60
2018-07-27T03:55:37.841Z,91.60
2018-07-27T03:58:06.411Z,92.10
2018-07-27T04:03:02.987Z,91.90
2018-07-27T04:05:31.440Z,92.00
2018-07-27T04:07:59.878Z,92.20
2018-07-27T04:10:28.296Z,92.30
2018-07-27T04:12:56.737Z,92.40
2018-07-27T04:15:25.190Z,92.50
2018-07-27T04:17:58.161Z,92.50
2018-07-27T04:20:26.606Z,92.50
2018-07-27T04:22:55.195Z,92.50
2018-07-27T04:25:23.688Z,92.90
2018-07-27T04:27:52.122Z,94.00
2018-07-27T04:30:21.563Z,93.70
2018-07-27T04:32:51.180Z,94.20
2018-07-27T04:35:19.858Z,93.60
2018-07-27T04:37:48.286Z,93.30
2018-07-27T04:40:16.762Z,93.10
2018-07-27T04:42:46.190Z,92.90
2018-07-27T04:45:14.639Z,93.10
2018-07-27T04:47:43.084Z,93.00
2018-07-27T04:50:11.497Z,93.10
2018-07-27T04:52:40.036Z,92.80
2018-07-27T04:55:08.469Z,92.10
2018-07-27T04:57:36.913Z,92.20
2018-07-27T05:00:06.062Z,92.00
2018-07-27T05:02:34.547Z,92.70
2018-07-27T05:05:02.954Z,93.40
2018-07-27T05:07:31.390Z,93.40
2018-07-27T05:09:59.892Z,92.90
2018-07-27T05:12:28.346Z,92.80
2018-07-27T05:14:56.768Z,92.40
2018-07-27T05:17:25.415Z,92.70
2018-07-27T05:19:53.842Z,92.30
2018-07-27T05:22:22.326Z,92.30
2018-07-27T05:24:50.825Z,92.40
2018-07-27T05:27:19.322Z,92.80
2018-07-27T05:29:48.884Z,92.90
2018-07-27T05:32:17.334Z,92.80
2018-07-27T05:34:45.782Z,92.90
2018-07-27T05:37:14.189Z,93.00
2018-07-27T05:39:42.632Z,92.50
2018-07-27T05:42:11.166Z,92.00
2018-07-27T05:44:39.602Z,91.80
2018-07-27T05:47:08.073Z,91.60
2018-07-27T05:49:36.509Z,92.10
2018-07-27T05:52:04.920Z,91.60
2018-07-27T05:54:33.350Z,91.30
2018-07-27T05:57:01.784Z,91.70
2018-07-27T05:59:30.263Z,91.20
2018-07-27T06:01:58.714Z,91.30
2018-07-27T06:04:27.112Z,91.90
2018-07-27T06:06:55.540Z,91.00
2018-07-27T06:09:24.027Z,90.70
2018-07-27T06:11:52.479Z,90.50
2018-07-27T06:14:20.944Z,90.70
2018-07-27T06:16:49.384Z,90.40
2018-07-27T06:19:17.825Z,90.20
2018-07-27T06:21:46.320Z,90.10
2018-07-27T06:24:14.846Z,89.20
2018-07-27T06:26:43.179Z,89.30
2018-07-27T06:29:11.665Z,88.80
2018-07-27T06:31:40.132Z,87.90
2018-07-27T06:34:08.570Z,87.80
2018-07-27T06:36:36.994Z,87.70
2018-07-27T06:39:08.238Z,87.70
2018-07-27T06:41:36.672Z,87.60
2018-07-27T06:44:05.131Z,87.10
2018-07-27T06:46:33.570Z,86.70
2018-07-27T06:49:02.003Z,86.30
2018-07-27T06:51:30.436Z,85.30
2018-07-27T06:53:59.018Z,85.00
2018-07-27T06:56:27.432Z,84.90
2018-07-27T06:58:55.857Z,84.60
2018-07-27T07:01:24.331Z,84.20
2018-07-27T07:03:52.759Z,83.90
2018-07-27T07:06:21.179Z,84.00
2018-07-27T07:08:49.616Z,83.40
2018-07-27T07:11:18.044Z,83.30
2018-07-27T07:13:46.476Z,83.50
2018-07-27T07:16:14.934Z,82.80
2018-07-27T07:18:43.385Z,82.90
2018-07-27T07:21:11.808Z,82.10
2018-07-27T07:23:40.252Z,81.60
2018-07-27T07:26:09.042Z,81.60
2018-07-27T07:28:37.236Z,80.90
2018-07-27T07:31:05.682Z,81.60
2018-07-27T07:33:34.123Z,80.30
2018-07-27T07:36:02.538Z,81.10
2018-07-27T07:38:31.006Z,78.30
2018-07-27T07:40:59.447Z,76.20
2018-07-27T07:43:27.880Z,74.50
2018-07-27T07:45:56.381Z,73.70
2018-07-27T07:48:24.876Z,71.00
2018-07-27T07:50:53.365Z,65.00
2018-07-27T07:53:21.922Z,61.70
2018-07-27T07:55:50.358Z,56.50
2018-07-27T07:58:18.862Z,53.00
2018-07-27T08:00:47.638Z,52.50
2018-07-27T08:03:16.140Z,52.30
2018-07-27T08:05:44.572Z,51.80
2018-07-27T08:08:13.035Z,48.80
2018-07-27T08:10:41.474Z,49.50
2018-07-27T08:13:09.898Z,47.50
2018-07-27T08:15:38.370Z,44.60
2018-07-27T08:18:06.932Z,42.80
2018-07-27T08:20:35.364Z,41.10
2018-07-27T08:23:03.857Z,40.10
2018-07-27T08:26:49.485Z,36.70
2018-07-27T08:29:20.135Z,36.30
2018-07-27T08:34:18.391Z,38.60
2018-07-27T08:36:47.126Z,38.50
2018-07-27T08:39:18.190Z,36.80
2018-07-27T08:41:47.379Z,37.80
2018-07-27T08:44:17.134Z,38.00
2018-07-27T08:46:45.576Z,38.20
2018-07-27T08:49:14.114Z,37.20
2018-07-27T08:51:42.681Z,36.30
2018-07-27T08:54:11.092Z,36.10
2018-07-27T08:56:39.508Z,36.10
2018-07-27T08:59:08.125Z,36.30
2018-07-27T09:01:36.582Z,35.80
2018-07-27T09:04:05.199Z,34.20
2018-07-27T09:06:33.608Z,33.70
2018-07-27T09:09:02.051Z,33.90
2018-07-27T09:11:30.497Z,32.40
2018-07-27T09:13:58.944Z,33.10
2018-07-27T09:16:27.365Z,33.60
2018-07-27T09:18:55.801Z,35.20
2018-07-27T09:21:24.229Z,35.60
2018-07-27T09:23:53.318Z,35.20
2018-07-27T09:26:21.769Z,37.10
2018-07-27T09:28:50.194Z,36.50
2018-07-27T09:31:18.635Z,36.30
2018-07-27T09:33:47.052Z,35.00
2018-07-27T09:36:15.465Z,34.30
2018-07-27T09:38:43.869Z,33.90
2018-07-27T09:41:12.326Z,34.00
2018-07-27T09:43:40.744Z,31.30
2018-07-27T09:46:09.178Z,34.30
2018-07-27T09:48:38.600Z,34.50
2018-07-27T09:51:07.012Z,32.30
2018-07-27T09:53:35.449Z,33.30
2018-07-27T09:56:03.925Z,36.50
2018-07-27T09:58:32.380Z,36.90
2018-07-27T10:01:06.230Z,36.50
2018-07-27T10:03:34.666Z,35.30
2018-07-27T10:06:03.106Z,36.40
2018-07-27T10:08:31.566Z,35.00
2018-07-27T10:10:59.996Z,35.80
2018-07-27T10:13:28.418Z,37.60
2018-07-27T10:15:56.865Z,35.70
2018-07-27T10:18:25.332Z,33.90
2018-07-27T10:20:53.734Z,34.60
2018-07-27T10:23:22.202Z,33.70
2018-07-27T10:25:50.644Z,33.00
2018-07-27T10:28:19.055Z,34.80
2018-07-27T10:30:47.533Z,33.20
2018-07-27T10:33:16.024Z,35.50
2018-07-27T10:35:44.426Z,34.40
2018-07-27T10:38:12.858Z,34.80
2018-07-27T10:40:41.290Z,35.70
2018-07-27T10:43:09.716Z,35.20
2018-07-27T10:45:38.188Z,34.70
2018-07-27T10:48:06.608Z,33.30
2018-07-27T10:50:35.017Z,35.00
2018-07-27T10:53:03.445Z,35.90
2018-07-27T10:55:31.872Z,33.90
2018-07-27T10:58:00.276Z,34.30
2018-07-27T11:00:28.733Z,34.90
2018-07-27T11:02:57.162Z,32.30
2018-07-27T11:05:25.573Z,35.20
2018-07-27T11:07:54.053Z,32.90
2018-07-27T11:10:22.496Z,35.10
2018-07-27T11:12:50.951Z,31.50
2018-07-27T11:15:20.014Z,33.10
2018-07-27T11:17:48.531Z,33.60
2018-07-27T11:20:16.917Z,33.40
2018-07-27T11:22:45.474Z,33.80
2018-07-27T11:25:13.888Z,34.50
2018-07-27T11:27:42.276Z,33.80
2018-07-27T11:30:10.728Z,34.20
2018-07-27T11:32:39.161Z,34.30
2018-07-27T11:35:07.595Z,33.70
2018-07-27T11:37:36.071Z,33.00
2018-07-27T11:40:05.516Z,34.00
2018-07-27T11:42:34.041Z,35.00
2018-07-27T11:45:02.543Z,33.40
2018-07-27T11:47:30.976Z,35.80
2018-07-27T11:49:59.424Z,33.00
2018-07-27T11:52:27.921Z,35.30
2018-07-27T11:54:56.359Z,33.70
2018-07-27T11:57:24.875Z,36.30
2018-07-27T11:59:53.631Z,37.00
2018-07-27T12:02:22.875Z,38.40
2018-07-27T12:04:51.302Z,37.80
2018-07-27T12:07:19.798Z,36.40
2018-07-27T12:09:48.483Z,35.00
2018-07-27T12:12:17.777Z,36.30
2018-07-27T12:14:46.339Z,35.90
2018-07-27T12:19:42.912Z,36.00
2018-07-27T12:22:11.362Z,36.30
2018-07-27T12:24:40.483Z,36.70
2018-07-27T12:27:09.046Z,35.90
2018-07-27T12:29:37.503Z,35.60
2018-07-27T12:32:05.997Z,36.80
2018-07-27T12:34:35.571Z,34.70
2018-07-27T12:37:04.028Z,35.90
2018-07-27T12:39:32.648Z,37.20
2018-07-27T12:42:01.361Z,38.30
2018-07-27T12:44:30.053Z,35.30
2018-07-27T12:46:58.719Z,34.80
2018-07-27T12:49:27.395Z,35.80
2018-07-27T12:51:56.737Z,37.20
2018-07-27T12:54:25.163Z,36.60
2018-07-27T12:56:53.576Z,36.20
2018-07-27T13:01:50.221Z,35.00
2018-07-27T13:04:18.640Z,34.70
2018-07-27T13:06:47.099Z,34.40
2018-07-27T13:09:15.618Z,35.00
2018-07-27T13:11:44.013Z,35.00
2018-07-27T13:14:12.628Z,34.60
2018-07-27T13:16:41.527Z,32.30
2018-07-27T13:19:12.674Z,31.10
2018-07-27T13:21:41.114Z,35.10
2018-07-27T13:24:09.500Z,34.60
2018-07-27T13:26:38.071Z,35.90
2018-07-27T13:29:06.521Z,34.20
2018-07-27T13:34:39.929Z,34.60
2018-07-27T13:37:08.696Z,32.20
2018-07-27T13:39:37.816Z,32.40
2018-07-27T13:42:07.172Z,35.30
2018-07-27T13:44:37.834Z,34.90
2018-07-27T13:47:06.801Z,35.00
2018-07-27T13:49:35.388Z,34.50
2018-07-27T13:52:03.880Z,34.10
2018-07-27T13:54:33.194Z,34.30
2018-07-27T13:57:02.069Z,33.20
2018-07-27T13:59:30.562Z,34.60
2018-07-27T14:01:58.988Z,33.90
2018-07-27T14:04:27.425Z,33.20
2018-07-27T14:06:58.976Z,33.90
2018-07-27T14:11:55.560Z,36.30
2018-07-27T14:14:24.059Z,34.70
2018-07-27T14:16:52.465Z,35.60
2018-07-27T14:19:21.461Z,35.60
2018-07-27T14:21:49.884Z,33.70
2018-07-27T14:24:18.317Z,34.40
2018-07-27T14:26:46.997Z,35.10
2018-07-27T14:29:19.687Z,34.30
2018-07-27T14:31:48.067Z,34.40
2018-07-27T14:34:16.519Z,33.60
2018-07-27T14:36:44.994Z,35.30
2018-07-27T14:39:14.640Z,36.60
2018-07-27T14:41:43.421Z,35.40
2018-07-27T14:44:11.936Z,33.40
2018-07-27T14:46:40.413Z,33.50
2018-07-27T14:49:10.615Z,34.30
2018-07-27T14:51:39.825Z,35.20
2018-07-27T14:54:09.422Z,33.00
2018-07-27T14:56:38.212Z,32.80
2018-07-27T14:59:07.014Z,35.50
2018-07-27T15:01:35.487Z,34.60
2018-07-27T15:04:03.909Z,34.70
2018-07-27T15:06:32.453Z,33.80
2018-07-27T15:09:00.872Z,34.40
2018-07-27T15:11:29.273Z,35.20
2018-07-27T15:13:58.268Z,34.60
2018-07-27T15:16:26.729Z,35.70
2018-07-27T15:18:55.332Z,35.80
2018-07-27T15:21:23.974Z,36.10
2018-07-27T15:23:52.465Z,36.60
2018-07-27T15:26:20.910Z,35.40
2018-07-27T15:28:49.515Z,35.90
2018-07-27T15:31:17.941Z,35.70
2018-07-27T15:33:46.387Z,36.50
2018-07-27T15:36:14.856Z,37.20
2018-07-27T15:38:43.298Z,37.10
2018-07-27T15:41:11.808Z,36.80
2018-07-27T15:46:08.382Z,37.00
2018-07-27T15:48:36.865Z,37.70
2018-07-27T15:51:05.302Z,37.90
2018-07-27T15:53:33.757Z,38.80
2018-07-27T15:56:02.168Z,38.70
2018-07-27T15:58:30.645Z,39.20
2018-07-27T16:00:59.056Z,39.60
2018-07-27T16:03:27.494Z,38.90
2018-07-27T16:05:55.935Z,39.10
2018-07-27T16:08:24.354Z,38.40
2018-07-27T16:10:52.782Z,39.60
2018-07-27T16:13:21.201Z,39.80
2018-07-27T16:15:49.651Z,40.90
2018-07-27T16:18:18.088Z,40.60
2018-07-27T16:20:46.520Z,40.70
2018-07-27T16:23:14.923Z,40.60
2018-07-27T16:25:43.363Z,40.00
2018-07-27T16:28:11.838Z,40.30
2018-07-27T16:30:40.264Z,40.50
2018-07-27T16:33:08.713Z,40.70
2018-07-27T16:35:37.694Z,40.70
2018-07-27T16:38:06.427Z,40.50
2018-07-27T16:40:34.863Z,41.60
2018-07-27T16:43:03.317Z,41.90
2018-07-27T16:45:31.724Z,41.90
2018-07-27T16:48:00.366Z,42.00
2018-07-27T16:50:28.776Z,41.90
2018-07-27T16:52:57.270Z,42.90
2018-07-27T16:55:25.675Z,42.60
2018-07-27T16:57:54.178Z,42.60
2018-07-27T17:00:22.626Z,42.50
2018-07-27T17:02:51.072Z,42.00
2018-07-27T17:05:19.762Z,42.40
2018-07-27T17:07:48.185Z,42.80
2018-07-27T17:10:16.697Z,42.60
2018-07-27T17:12:45.158Z,43.50
2018-07-27T17:15:13.598Z,43.50
2018-07-27T17:17:42.021Z,43.50
2018-07-27T17:20:10.554Z,43.60
2018-07-27T17:22:38.953Z,43.20
2018-07-27T17:25:07.405Z,43.50
2018-07-27T17:27:36.205Z,44.00
2018-07-27T17:30:06.213Z,44.70
2018-07-27T17:32:35.304Z,44.90
2018-07-27T17:35:03.940Z,44.40
2018-07-27T17:37:32.371Z,45.00
2018-07-27T17:40:00.891Z,45.20
2018-07-27T17:42:29.516Z,45.00
2018-07-27T17:44:57.996Z,45.60
2018-07-27T17:47:26.421Z,46.30
2018-07-27T17:49:54.891Z,46.40
2018-07-27T17:52:23.910Z,46.10
2018-07-27T17:54:52.516Z,46.50
2018-07-27T17:57:20.939Z,47.30
2018-07-27T17:59:49.344Z,46.60
2018-07-27T18:02:17.857Z,47.10
2018-07-27T18:04:46.331Z,47.80
2018-07-27T18:07:14.900Z,47.60
2018-07-27T18:09:43.245Z,47.80
2018-07-27T18:12:11.744Z,47.90
2018-07-27T18:14:40.793Z,48.50
2018-07-27T18:17:09.216Z,48.90
2018-07-27T18:19:37.670Z,49.20
2018-07-27T18:22:06.091Z,49.00
2018-07-27T18:24:34.584Z,49.00
2018-07-27T18:27:03.004Z,49.10
2018-07-27T18:29:31.430Z,49.10
2018-07-27T18:31:59.926Z,49.80
2018-07-27T18:34:28.350Z,50.10
2018-07-27T18:36:56.840Z,50.10
2018-07-27T18:39:25.292Z,50.70
2018-07-27T18:41:53.842Z,51.30
2018-07-27T18:44:22.252Z,51.70
2018-07-27T18:46:50.730Z,51.90
2018-07-27T18:49:19.176Z,52.50
2018-07-27T18:51:47.640Z,51.70
2018-07-27T18:54:16.076Z,52.10
2018-07-27T18:56:44.493Z,52.30
2018-07-27T18:59:13.207Z,52.40
2018-07-27T19:01:41.716Z,52.40
2018-07-27T19:04:10.140Z,53.40
2018-07-27T19:06:38.787Z,53.30
2018-07-27T19:09:10.877Z,54.00
2018-07-27T19:11:39.373Z,54.40
2018-07-27T19:14:07.841Z,54.10
2018-07-27T19:16:40.552Z,55.10
2018-07-27T19:19:10.845Z,55.60
2018-07-27T19:21:39.334Z,54.80
2018-07-27T19:24:07.821Z,55.40
2018-07-27T19:26:36.293Z,55.20
2018-07-27T19:29:04.753Z,55.20
2018-07-27T19:31:33.174Z,55.50
2018-07-27T19:34:01.634Z,56.60
2018-07-27T19:36:30.115Z,56.90
2018-07-27T19:38:58.561Z,57.60
2018-07-27T19:41:26.997Z,58.00
2018-07-27T19:43:55.545Z,57.50
2018-07-27T19:46:24.530Z,58.00
2018-07-27T19:51:21.118Z,58.60
2018-07-27T19:53:50.070Z,58.80
2018-07-27T19:56:18.496Z,59.10
2018-07-27T19:58:46.953Z,60.10
2018-07-27T20:01:15.384Z,59.00
2018-07-27T20:03:43.820Z,59.70
2018-07-27T20:06:12.331Z,60.80
2018-07-27T20:08:40.754Z,62.10
2018-07-27T20:11:09.169Z,60.20
2018-07-27T20:13:37.634Z,60.90
2018-07-27T20:16:06.189Z,61.70
2018-07-27T20:18:34.642Z,62.60
2018-07-27T20:21:03.090Z,62.50
2018-07-27T20:23:31.530Z,62.40
2018-07-27T20:25:59.958Z,63.60
2018-07-27T20:28:28.569Z,63.90
2018-07-27T20:30:57.006Z,63.80
2018-07-27T20:33:25.558Z,64.70
2018-07-27T20:35:54.061Z,64.20
2018-07-27T20:38:22.496Z,64.70
2018-07-27T20:40:50.917Z,64.10
2018-07-27T20:43:19.370Z,64.30
2018-07-27T20:45:47.800Z,64.90
2018-07-27T20:48:16.215Z,65.20
2018-07-27T20:50:44.682Z,65.60
2018-07-27T20:53:13.110Z,64.70
2018-07-27T20:58:09.717Z,65.80
2018-07-27T21:00:38.172Z,67.00
2018-07-27T21:03:06.579Z,66.00
2018-07-27T21:05:35.014Z,67.40
2018-07-27T21:08:03.438Z,66.20
2018-07-27T21:10:31.852Z,67.10
2018-07-27T21:13:00.292Z,66.90
2018-07-27T21:15:28.726Z,68.50
2018-07-27T21:17:57.160Z,68.40
2018-07-27T21:20:25.610Z,68.30
2018-07-27T21:22:54.042Z,67.80
2018-07-27T21:25:22.454Z,68.30
2018-07-27T21:27:50.917Z,69.10
2018-07-27T21:30:19.330Z,69.90
2018-07-27T21:32:47.745Z,69.40
2018-07-27T21:35:17.150Z,69.30
2018-07-27T21:37:45.572Z,70.30
2018-07-27T21:40:14.328Z,72.50
2018-07-27T21:42:42.759Z,72.20
2018-07-27T21:45:11.185Z,71.50
2018-07-27T21:47:39.593Z,71.10
2018-07-27T21:50:08.255Z,70.90
2018-07-27T21:52:36.675Z,71.50
2018-07-27T21:55:05.387Z,71.60
2018-07-27T21:57:33.840Z,71.80
2018-07-27T22:00:02.290Z,71.90
2018-07-27T22:02:30.718Z,72.50
2018-07-27T22:04:59.189Z,73.00
2018-07-27T22:07:27.606Z,73.30
2018-07-27T22:09:56.017Z,73.70
2018-07-27T22:12:24.477Z,73.80
2018-07-27T22:14:52.869Z,74.40
2018-07-27T22:17:21.281Z,74.40
2018-07-27T22:19:49.741Z,75.20
2018-07-27T22:22:18.513Z,74.90
2018-07-27T22:27:15.101Z,75.20
2018-07-27T22:29:43.522Z,75.10
2018-07-27T22:32:11.932Z,75.70
2018-07-27T22:34:40.389Z,75.80
2018-07-27T22:37:08.812Z,76.40
2018-07-27T22:39:37.248Z,77.20
2018-07-27T22:42:05.682Z,76.00
2018-07-27T22:44:34.103Z,76.40
2018-07-27T22:47:02.606Z,76.60
2018-07-27T22:49:31.050Z,77.80
2018-07-27T22:51:59.498Z,77.70
2018-07-27T22:54:27.936Z,77.70
2018-07-27T22:56:56.430Z,78.50
2018-07-27T22:59:24.869Z,78.40
2018-07-27T23:01:53.304Z,78.70
2018-07-27T23:06:49.824Z,79.00
2018-07-27T23:09:18.244Z,79.40
2018-07-27T23:11:46.668Z,79.20
2018-07-27T23:14:15.063Z,79.50
2018-07-27T23:16:43.486Z,79.50
2018-07-27T23:19:11.936Z,79.60
2018-07-27T23:21:40.375Z,79.70
2018-07-27T23:24:08.846Z,79.90
2018-07-27T23:26:37.296Z,80.00
2018-07-27T23:29:05.721Z,80.20
2018-07-27T23:31:34.137Z,80.50
2018-07-27T23:34:03.341Z,81.10
2018-07-27T23:36:31.757Z,81.80
2018-07-27T23:39:00.185Z,81.70
2018-07-27T23:41:28.621Z,82.10
2018-07-27T23:43:57.130Z,82.10
2018-07-27T23:46:25.598Z,83.00
2018-07-27T23:48:54.044Z,82.90
2018-07-27T23:51:22.497Z,82.80
2018-07-27T23:53:50.921Z,83.50
2018-07-27T23:56:19.344Z,84.80
2018-07-27T23:58:47.782Z,83.70
